Time;durP1;ratioP1;P1;durP2;ratioP2;P2;SDS_P1;SDS_P2;PMS_P1;PMS_P2;Temp;Humidity;BMP_temperature;BMP_pressure;BME280_temperature;BME280_humidity;BME280_pressure;Samples;Min_cycle;Max_cycle;Signal;HPM_P1;HPM_P2
2023/09/27 00:01:09;;;;;;;5.97;4.72;;;;;;;;;;5004686;28;20619;-54
2023/09/27 00:03:35;;;;;;;8.18;5.57;;;;;;;;;;4998301;28;20185;-55
2023/09/27 00:06:01;;;;;;;5.45;4.60;;;;;;;;;;4999306;28;20307;-54
2023/09/27 00:08:27;;;;;;;7.07;4.90;;;;;;;;;;4989982;28;20635;-54
2023/09/27 00:10:53;;;;;;;9.85;5.35;;;;;;;;;;4999036;28;20217;-55
2023/09/27 00:13:19;;;;;;;6.00;5.18;;;;;;;;;;4997442;28;20189;-55
2023/09/27 00:15:45;;;;;;;6.75;4.65;;;;;;;;;;4991994;28;20212;-55
2023/09/27 00:18:11;;;;;;;6.72;4.97;;;;;;;;;;5002845;28;20202;-55
2023/09/27 00:20:37;;;;;;;5.47;4.75;;;;;;;;;;4998316;28;20196;-55
2023/09/27 00:23:03;;;;;;;5.15;4.55;;;;;;;;;;5001318;28;20190;-54
2023/09/27 00:25:29;;;;;;;8.02;4.80;;;;;;;;;;4998513;28;20204;-54
2023/09/27 00:27:55;;;;;;;4.82;4.20;;;;;;;;;;5010169;28;20192;-54
2023/09/27 00:30:22;;;;;;;7.35;4.68;;;;;;;;;;5005937;28;20200;-54
2023/09/27 00:32:47;;;;;;;8.02;4.85;;;;;;;;;;5010540;28;20177;-54
2023/09/27 00:35:22;;;;;;;7.60;4.97;;;;;;;;;;4998151;28;20223;-55
2023/09/27 00:37:48;;;;;;;6.53;4.72;;;;;;;;;;5013621;28;20263;-55
2023/09/27 00:40:18;;;;;;;5.90;4.35;;;;;;;;;;4997264;28;20185;-54
2023/09/27 00:42:44;;;;;;;5.70;4.82;;;;;;;;;;5001707;28;20199;-55
2023/09/27 00:45:10;;;;;;;5.47;4.60;;;;;;;;;;4998467;28;20612;-55
2023/09/27 00:47:37;;;;;;;5.32;4.65;;;;;;;;;;5004316;28;20181;-54
2023/09/27 00:50:03;;;;;;;5.47;4.78;;;;;;;;;;4996576;28;20208;-54
2023/09/27 00:52:29;;;;;;;4.72;4.28;;;;;;;;;;5000677;28;20189;-54
2023/09/27 00:54:56;;;;;;;6.80;4.85;;;;;;;;;;4999455;28;20198;-54
2023/09/27 00:57:22;;;;;;;10.20;5.05;;;;;;;;;;5014665;28;20256;-54
2023/09/27 00:59:48;;;;;;;8.57;4.38;;;;;;;;;;5000482;28;20205;-54
2023/09/27 01:02:15;;;;;;;6.82;4.65;;;;;;;;;;4999497;28;20185;-55
2023/09/27 01:04:41;;;;;;;6.35;5.05;;;;;;;;;;4994493;28;20184;-55
2023/09/27 01:07:10;;;;;;;5.75;4.57;;;;;;;;;;5011201;28;20262;-54
2023/09/27 01:09:37;;;;;;;6.45;4.32;;;;;;;;;;5004116;28;20183;-54
2023/09/27 01:12:03;;;;;;;6.65;5.07;;;;;;;;;;4999630;28;20177;-54
2023/09/27 01:14:30;;;;;;;5.65;4.40;;;;;;;;;;5008145;28;20192;-54
2023/09/27 01:16:55;;;;;;;7.93;4.50;;;;;;;;;;5009882;28;20208;-54
2023/09/27 01:19:22;;;;;;;5.35;4.75;;;;;;;;;;4999875;28;20758;-54
2023/09/27 01:21:48;;;;;;;7.13;4.85;;;;;;;;;;5002067;28;20181;-54
2023/09/27 01:24:15;;;;;;;7.32;4.50;;;;;;;;;;5006977;28;20215;-54
2023/09/27 01:26:42;;;;;;;6.85;4.50;;;;;;;;;;4999684;28;20582;-55
2023/09/27 01:29:08;;;;;;;5.75;4.60;;;;;;;;;;5006881;28;20189;-54
2023/09/27 01:31:34;;;;;;;7.05;4.40;;;;;;;;;;5009176;28;20177;-55
2023/09/27 01:34:01;;;;;;;5.13;4.40;;;;;;;;;;4994235;28;20299;-54
2023/09/27 01:36:27;;;;;;;5.05;4.40;;;;;;;;;;5004046;28;20252;-55
2023/09/27 01:38:52;;;;;;;5.05;4.22;;;;;;;;;;5005089;28;20189;-55
2023/09/27 01:41:18;;;;;;;6.40;4.60;;;;;;;;;;4994025;28;20564;-54
2023/09/27 01:43:44;;;;;;;6.72;4.30;;;;;;;;;;4993037;28;20184;-54
2023/09/27 01:46:10;;;;;;;8.45;4.90;;;;;;;;;;5002178;28;20252;-54
2023/09/27 01:48:36;;;;;;;6.07;4.70;;;;;;;;;;5002543;28;20256;-55
2023/09/27 01:51:02;;;;;;;6.88;5.00;;;;;;;;;;4991288;28;20905;-54
2023/09/27 01:53:28;;;;;;;5.82;4.32;;;;;;;;;;5004011;28;20191;-54
2023/09/27 01:55:54;;;;;;;5.70;4.43;;;;;;;;;;4996047;28;20205;-54
2023/09/27 01:58:20;;;;;;;5.60;4.25;;;;;;;;;;5001342;28;20182;-54
2023/09/27 02:00:46;;;;;;;4.80;4.30;;;;;;;;;;4994353;28;20185;-54
2023/09/27 02:03:12;;;;;;;4.85;4.03;;;;;;;;;;4999730;28;20592;-54
2023/09/27 02:05:38;;;;;;;6.90;4.30;;;;;;;;;;5009432;28;20192;-54
2023/09/27 02:08:05;;;;;;;8.25;4.80;;;;;;;;;;5004690;28;20278;-54
2023/09/27 02:10:31;;;;;;;5.90;4.50;;;;;;;;;;5000030;28;20664;-54
2023/09/27 02:12:57;;;;;;;6.25;4.75;;;;;;;;;;4995689;28;20189;-54
2023/09/27 02:15:23;;;;;;;7.18;4.50;;;;;;;;;;5004777;28;20213;-54
2023/09/27 02:17:48;;;;;;;5.75;4.57;;;;;;;;;;4996975;28;20188;-55
2023/09/27 02:20:17;;;;;;;6.65;5.13;;;;;;;;;;5001457;28;20187;-54
2023/09/27 02:22:46;;;;;;;6.28;4.78;;;;;;;;;;4997261;28;20452;-54
2023/09/27 02:25:13;;;;;;;6.70;4.50;;;;;;;;;;5009593;28;20211;-54
2023/09/27 02:27:39;;;;;;;7.20;5.03;;;;;;;;;;5007510;28;20177;-54
2023/09/27 02:30:07;;;;;;;6.22;4.50;;;;;;;;;;4991228;28;20197;-54
2023/09/27 02:32:33;;;;;;;5.63;4.53;;;;;;;;;;5011010;28;20267;-55
2023/09/27 02:34:59;;;;;;;5.28;4.30;;;;;;;;;;5004614;28;20224;-55
2023/09/27 02:37:25;;;;;;;6.55;4.68;;;;;;;;;;5005337;28;20579;-54
2023/09/27 02:39:51;;;;;;;8.02;4.20;;;;;;;;;;4984769;28;20429;-54
2023/09/27 02:42:17;;;;;;;5.03;4.38;;;;;;;;;;4993641;28;20432;-54
2023/09/27 02:44:43;;;;;;;7.05;4.18;;;;;;;;;;4999697;28;20566;-54
2023/09/27 02:47:09;;;;;;;6.65;4.50;;;;;;;;;;4995253;28;20499;-54
2023/09/27 02:49:35;;;;;;;7.47;4.55;;;;;;;;;;4995023;28;20250;-54
2023/09/27 02:52:01;;;;;;;5.85;4.28;;;;;;;;;;5002353;28;20564;-55
2023/09/27 02:54:28;;;;;;;6.10;4.25;;;;;;;;;;5004568;28;20185;-54
2023/09/27 02:56:54;;;;;;;4.97;4.22;;;;;;;;;;5007406;28;20200;-54
2023/09/27 02:59:20;;;;;;;5.30;3.92;;;;;;;;;;4994289;28;20194;-55
2023/09/27 03:01:46;;;;;;;6.18;4.10;;;;;;;;;;5007147;28;20173;-54
2023/09/27 03:04:12;;;;;;;6.55;3.88;;;;;;;;;;4996716;28;20180;-54
2023/09/27 03:06:39;;;;;;;8.45;4.20;;;;;;;;;;4996610;28;20255;-54
2023/09/27 03:09:05;;;;;;;6.13;4.45;;;;;;;;;;4989459;28;20244;-54
2023/09/27 03:11:33;;;;;;;3.97;3.58;;;;;;;;;;5005979;28;20600;-54
2023/09/27 03:13:59;;;;;;;5.78;4.38;;;;;;;;;;4993599;28;20189;-55
2023/09/27 03:16:25;;;;;;;6.60;4.70;;;;;;;;;;5002347;28;20216;-55
2023/09/27 03:18:51;;;;;;;4.85;4.30;;;;;;;;;;4991152;28;20185;-54
2023/09/27 03:21:17;;;;;;;4.65;4.18;;;;;;;;;;4994760;28;20176;-55
2023/09/27 03:23:43;;;;;;;6.50;4.32;;;;;;;;;;4994875;28;20189;-54
2023/09/27 03:26:10;;;;;;;7.82;4.00;;;;;;;;;;5003199;28;20444;-55
2023/09/27 03:28:36;;;;;;;7.32;4.30;;;;;;;;;;5000643;28;20194;-54
2023/09/27 03:31:02;;;;;;;5.78;4.40;;;;;;;;;;4997213;28;20181;-55
2023/09/27 03:33:28;;;;;;;6.63;4.38;;;;;;;;;;4994407;28;20197;-54
2023/09/27 03:35:54;;;;;;;5.53;4.03;;;;;;;;;;4998475;28;20212;-55
2023/09/27 03:38:20;;;;;;;27.85;9.43;;;;;;;;;;5010029;28;20464;-54
2023/09/27 03:40:48;;;;;;;50.92;10.68;;;;;;;;;;5000184;28;20549;-55
2023/09/27 03:43:14;;;;;;;44.75;9.32;;;;;;;;;;4983813;28;20193;-55
2023/09/27 03:45:40;;;;;;;30.70;9.00;;;;;;;;;;5002134;28;20197;-55
2023/09/27 03:48:06;;;;;;;28.45;7.85;;;;;;;;;;4988071;28;20190;-54
2023/09/27 03:50:32;;;;;;;34.00;8.98;;;;;;;;;;5001954;28;20199;-54
2023/09/27 03:52:58;;;;;;;26.73;8.10;;;;;;;;;;4996731;28;20185;-54
2023/09/27 03:55:24;;;;;;;29.20;9.45;;;;;;;;;;4984757;28;20225;-55
2023/09/27 03:57:51;;;;;;;26.88;9.38;;;;;;;;;;5000197;28;20247;-55
2023/09/27 04:00:17;;;;;;;31.35;9.02;;;;;;;;;;5011089;28;20196;-55
2023/09/27 04:02:44;;;;;;;24.73;9.15;;;;;;;;;;5016704;28;20219;-54
2023/09/27 04:05:10;;;;;;;26.50;8.23;;;;;;;;;;4998984;28;20193;-55
2023/09/27 04:07:36;;;;;;;32.42;8.38;;;;;;;;;;4995839;28;20221;-54
2023/09/27 04:10:07;;;;;;;30.92;7.40;;;;;;;;;;5007803;28;20219;-54
2023/09/27 04:12:33;;;;;;;33.67;8.60;;;;;;;;;;5008667;28;20180;-55
2023/09/27 04:14:59;;;;;;;25.40;8.13;;;;;;;;;;4989871;28;20237;-55
2023/09/27 04:17:25;;;;;;;19.58;7.22;;;;;;;;;;5005389;28;20219;-54
2023/09/27 04:19:51;;;;;;;19.13;6.72;;;;;;;;;;4997733;28;20201;-55
2023/09/27 04:22:18;;;;;;;18.75;6.32;;;;;;;;;;4995098;28;20192;-55
2023/09/27 04:24:43;;;;;;;16.42;5.70;;;;;;;;;;4993355;28;20249;-55
2023/09/27 04:27:09;;;;;;;21.85;6.40;;;;;;;;;;5010596;28;20192;-54
2023/09/27 04:29:35;;;;;;;15.68;5.55;;;;;;;;;;5006214;28;20188;-54
2023/09/27 04:32:01;;;;;;;21.90;5.55;;;;;;;;;;5003988;28;20185;-55
2023/09/27 04:34:28;;;;;;;12.60;5.75;;;;;;;;;;4992903;28;20195;-54
2023/09/27 04:36:54;;;;;;;14.00;5.32;;;;;;;;;;4993997;28;20208;-52
2023/09/27 04:39:20;;;;;;;19.38;6.13;;;;;;;;;;4998493;28;20211;-52
2023/09/27 04:41:49;;;;;;;15.60;5.35;;;;;;;;;;4998031;28;20276;-52
2023/09/27 04:44:14;;;;;;;10.93;5.78;;;;;;;;;;4986952;28;20261;-52
2023/09/27 04:46:40;;;;;;;11.57;5.07;;;;;;;;;;5006044;28;20520;-52
2023/09/27 04:49:07;;;;;;;8.02;5.18;;;;;;;;;;5002416;28;20497;-53
2023/09/27 04:51:33;;;;;;;15.02;5.65;;;;;;;;;;5006658;28;20189;-52
2023/09/27 04:54:02;;;;;;;9.00;5.45;;;;;;;;;;4992045;28;20189;-52
2023/09/27 04:56:29;;;;;;;10.45;5.40;;;;;;;;;;4999305;28;20473;-52
2023/09/27 04:58:55;;;;;;;11.30;5.72;;;;;;;;;;4999502;28;20255;-52
2023/09/27 05:01:22;;;;;;;7.03;4.97;;;;;;;;;;4990339;28;20181;-52
2023/09/27 05:03:49;;;;;;;7.47;5.25;;;;;;;;;;5007129;28;20223;-52
2023/09/27 05:06:15;;;;;;;6.93;4.80;;;;;;;;;;4994404;28;20181;-52
2023/09/27 05:08:41;;;;;;;5.85;4.95;;;;;;;;;;4999960;28;20226;-52
2023/09/27 05:11:07;;;;;;;5.53;4.55;;;;;;;;;;5009341;28;20185;-52
2023/09/27 05:13:33;;;;;;;6.28;4.47;;;;;;;;;;5006094;28;20186;-52
2023/09/27 05:15:59;;;;;;;8.43;5.10;;;;;;;;;;4999760;28;20219;-51
2023/09/27 05:18:25;;;;;;;7.43;4.50;;;;;;;;;;5001012;28;20182;-50
2023/09/27 05:20:51;;;;;;;10.82;4.88;;;;;;;;;;5004838;28;20176;-48
2023/09/27 05:23:17;;;;;;;12.35;4.78;;;;;;;;;;4996682;28;20256;-49
2023/09/27 05:25:44;;;;;;;15.57;5.15;;;;;;;;;;5002859;28;20184;-53
2023/09/27 05:28:10;;;;;;;25.00;5.78;;;;;;;;;;5002858;28;20185;-52
2023/09/27 05:30:36;;;;;;;11.80;4.88;;;;;;;;;;4992674;28;20576;-52
2023/09/27 05:33:04;;;;;;;11.50;6.25;;;;;;;;;;5008811;28;20567;-52
2023/09/27 05:35:30;;;;;;;8.15;4.80;;;;;;;;;;5007553;28;20204;-52
2023/09/27 05:37:57;;;;;;;15.00;4.90;;;;;;;;;;5010049;28;20189;-50
2023/09/27 05:40:23;;;;;;;9.50;4.45;;;;;;;;;;5004640;28;20177;-46
2023/09/27 05:42:49;;;;;;;11.18;4.95;;;;;;;;;;5004480;28;20188;-46
2023/09/27 05:45:15;;;;;;;9.05;4.95;;;;;;;;;;5002957;28;20565;-46
2023/09/27 05:47:41;;;;;;;8.20;3.92;;;;;;;;;;4994374;28;20198;-46
2023/09/27 05:50:08;;;;;;;7.85;4.53;;;;;;;;;;5003276;28;20667;-51
2023/09/27 05:52:34;;;;;;;9.82;4.82;;;;;;;;;;5009072;28;20196;-48
2023/09/27 05:55:00;;;;;;;8.20;4.00;;;;;;;;;;5003290;28;20188;-50
2023/09/27 05:57:26;;;;;;;9.25;5.05;;;;;;;;;;5005661;28;20199;-52
2023/09/27 05:59:52;;;;;;;11.15;5.07;;;;;;;;;;4998238;28;20185;-48
2023/09/27 06:02:20;;;;;;;9.05;4.78;;;;;;;;;;5003417;28;20259;-51
2023/09/27 06:04:46;;;;;;;6.05;4.22;;;;;;;;;;4999649;28;20173;-50
2023/09/27 06:07:14;;;;;;;7.00;4.45;;;;;;;;;;4992972;28;20213;-50
2023/09/27 06:09:41;;;;;;;8.45;4.78;;;;;;;;;;4998808;28;20204;-50
2023/09/27 06:12:07;;;;;;;7.25;4.55;;;;;;;;;;4991879;28;20199;-52
2023/09/27 06:14:34;;;;;;;10.35;5.03;;;;;;;;;;4995948;28;20519;-53
2023/09/27 06:17:01;;;;;;;10.23;4.80;;;;;;;;;;5002191;28;20240;-43
2023/09/27 06:19:27;;;;;;;7.65;5.10;;;;;;;;;;4994538;28;20181;-44
2023/09/27 06:21:53;;;;;;;10.05;4.90;;;;;;;;;;5003232;28;20200;-54
2023/09/27 06:24:19;;;;;;;16.02;5.30;;;;;;;;;;4987992;28;20228;-53
2023/09/27 06:26:44;;;;;;;10.02;4.72;;;;;;;;;;5000818;28;20189;-53
2023/09/27 06:29:10;;;;;;;12.13;4.70;;;;;;;;;;5004457;28;20200;-53
2023/09/27 06:31:36;;;;;;;15.05;4.93;;;;;;;;;;5001071;28;20196;-53
2023/09/27 06:34:02;;;;;;;9.10;4.95;;;;;;;;;;4995781;28;20185;-53
2023/09/27 06:36:29;;;;;;;13.27;5.78;;;;;;;;;;5001569;28;20263;-53
2023/09/27 06:38:56;;;;;;;9.32;4.68;;;;;;;;;;5005518;28;20498;-53
2023/09/27 06:41:22;;;;;;;9.98;4.90;;;;;;;;;;4983964;28;20260;-53
2023/09/27 06:43:48;;;;;;;5.68;4.68;;;;;;;;;;4995988;28;20199;-53
2023/09/27 06:46:17;;;;;;;9.98;5.00;;;;;;;;;;4996809;28;20213;-53
2023/09/27 06:48:43;;;;;;;11.05;4.68;;;;;;;;;;5010541;28;20181;-53
2023/09/27 06:51:11;;;;;;;5.40;4.38;;;;;;;;;;5008255;28;20207;-53
2023/09/27 06:53:38;;;;;;;9.15;4.75;;;;;;;;;;4992120;28;20561;-53
2023/09/27 06:56:05;;;;;;;7.40;5.15;;;;;;;;;;5004002;28;20227;-53
2023/09/27 06:58:31;;;;;;;6.72;4.60;;;;;;;;;;4993901;28;20189;-58
2023/09/27 07:00:57;;;;;;;9.52;4.65;;;;;;;;;;4999503;28;20177;-53
2023/09/27 07:03:29;;;;;;;8.25;4.88;;;;;;;;;;4995738;28;20189;-53
2023/09/27 07:05:55;;;;;;;7.97;5.07;;;;;;;;;;5000272;28;20452;-53
2023/09/27 07:08:21;;;;;;;12.88;5.30;;;;;;;;;;5002103;28;20231;-53
2023/09/27 07:10:48;;;;;;;6.68;5.00;;;;;;;;;;5004377;28;20187;-53
2023/09/27 07:13:14;;;;;;;11.40;4.35;;;;;;;;;;4999156;28;20185;-53
2023/09/27 07:15:40;;;;;;;8.60;5.00;;;;;;;;;;4992200;28;20267;-52
2023/09/27 07:18:06;;;;;;;6.43;5.05;;;;;;;;;;4992481;28;20181;-52
2023/09/27 07:20:36;;;;;;;6.68;5.05;;;;;;;;;;4994215;28;20173;-52
2023/09/27 07:23:04;;;;;;;7.90;5.20;;;;;;;;;;4990714;28;20265;-52
2023/09/27 07:25:34;;;;;;;6.40;4.88;;;;;;;;;;5002891;28;20898;-53
2023/09/27 07:28:01;;;;;;;6.68;5.20;;;;;;;;;;5002335;28;20200;-52
2023/09/27 07:30:27;;;;;;;7.05;5.30;;;;;;;;;;5000881;28;20189;-52
2023/09/27 07:32:55;;;;;;;8.02;5.18;;;;;;;;;;5002814;28;20212;-52
2023/09/27 07:35:21;;;;;;;7.25;5.32;;;;;;;;;;4987756;28;20205;-52
2023/09/27 07:37:47;;;;;;;8.35;5.43;;;;;;;;;;5004190;28;20190;-52
2023/09/27 07:40:14;;;;;;;6.43;4.68;;;;;;;;;;4999697;28;20181;-52
2023/09/27 07:42:44;;;;;;;6.57;5.10;;;;;;;;;;5004154;28;20212;-52
2023/09/27 07:45:27;;;;;;;6.70;4.60;;;;;;;;;;4997061;28;20201;-52
2023/09/27 07:47:55;;;;;;;6.90;4.50;;;;;;;;;;5005025;28;20188;-52
2023/09/27 07:50:22;;;;;;;7.53;4.82;;;;;;;;;;4994209;28;20208;-52
2023/09/27 07:52:48;;;;;;;9.52;5.05;;;;;;;;;;5003492;28;20180;-52
2023/09/27 07:55:14;;;;;;;6.88;4.82;;;;;;;;;;4997811;28;20216;-52
2023/09/27 07:57:43;;;;;;;7.40;5.53;;;;;;;;;;4993614;28;20196;-52
2023/09/27 08:00:09;;;;;;;8.63;5.00;;;;;;;;;;4999207;28;20592;-53
2023/09/27 08:02:36;;;;;;;7.15;4.80;;;;;;;;;;4998089;28;20259;-53
2023/09/27 08:05:09;;;;;;;5.40;4.25;;;;;;;;;;5000263;28;20187;-53
2023/09/27 08:07:36;;;;;;;5.63;4.63;;;;;;;;;;4991306;28;20177;-53
2023/09/27 08:10:02;;;;;;;7.00;4.60;;;;;;;;;;5011381;28;20541;-53
2023/09/27 08:12:31;;;;;;;8.63;4.95;;;;;;;;;;5000660;28;20248;-53
2023/09/27 08:14:57;;;;;;;5.60;4.60;;;;;;;;;;5002682;28;20235;-52
2023/09/27 08:17:23;;;;;;;5.05;4.43;;;;;;;;;;5000962;28;20195;-52
2023/09/27 08:19:49;;;;;;;5.22;4.40;;;;;;;;;;5004451;28;20537;-52
2023/09/27 08:22:15;;;;;;;6.00;4.18;;;;;;;;;;4993277;28;20174;-52
2023/09/27 08:24:41;;;;;;;7.18;4.72;;;;;;;;;;4989887;28;20569;-52
2023/09/27 08:27:07;;;;;;;7.97;5.05;;;;;;;;;;4997682;28;20177;-52
2023/09/27 08:29:34;;;;;;;9.10;5.15;;;;;;;;;;5006389;28;20231;-52
2023/09/27 08:32:00;;;;;;;5.97;4.70;;;;;;;;;;4987045;28;20192;-52
2023/09/27 08:34:27;;;;;;;6.95;4.57;;;;;;;;;;4997697;28;20431;-52
2023/09/27 08:36:53;;;;;;;5.63;4.68;;;;;;;;;;4993952;28;20241;-52
2023/09/27 08:39:20;;;;;;;5.50;4.43;;;;;;;;;;4993533;28;20757;-52
2023/09/27 08:41:46;;;;;;;6.18;4.22;;;;;;;;;;5013149;28;20195;-52
2023/09/27 08:44:12;;;;;;;8.35;5.03;;;;;;;;;;4986021;28;20259;-52
2023/09/27 08:46:38;;;;;;;7.32;4.35;;;;;;;;;;4992624;28;20381;-52
2023/09/27 08:49:05;;;;;;;6.60;4.57;;;;;;;;;;5000185;28;20180;-52
2023/09/27 08:51:31;;;;;;;6.68;4.97;;;;;;;;;;4999063;28;20196;-52
2023/09/27 08:53:57;;;;;;;5.60;4.75;;;;;;;;;;4993743;28;20193;-52
2023/09/27 08:56:24;;;;;;;5.57;4.95;;;;;;;;;;5001484;28;20204;-52
2023/09/27 08:58:50;;;;;;;6.97;4.95;;;;;;;;;;5005142;28;20192;-53
2023/09/27 09:01:16;;;;;;;5.47;4.60;;;;;;;;;;5007249;28;20185;-52
2023/09/27 09:03:43;;;;;;;7.68;5.35;;;;;;;;;;5003201;28;20267;-52
2023/09/27 09:06:11;;;;;;;7.88;5.35;;;;;;;;;;5013417;28;20226;-52
2023/09/27 09:08:43;;;;;;;9.10;5.55;;;;;;;;;;5005447;28;20235;-52
2023/09/27 09:11:10;;;;;;;14.75;5.90;;;;;;;;;;4990191;28;20552;-52
2023/09/27 09:14:10;;;;;;;8.80;6.18;;;;;;;;;;5007925;28;20191;-52
2023/09/27 09:16:47;;;;;;;10.20;5.75;;;;;;;;;;5002878;28;20234;-52
2023/09/27 09:19:22;;;;;;;7.72;4.90;;;;;;;;;;5005103;28;20340;-52
2023/09/27 09:21:56;;;;;;;8.13;5.30;;;;;;;;;;5011022;28;20267;-52
2023/09/27 09:24:21;;;;;;;8.80;5.97;;;;;;;;;;5004134;28;20197;-52
2023/09/27 09:26:49;;;;;;;9.07;5.40;;;;;;;;;;5005558;28;20453;-52
2023/09/27 09:29:18;;;;;;;5.60;4.53;;;;;;;;;;4992635;28;20178;-52
2023/09/27 09:31:50;;;;;;;9.07;5.40;;;;;;;;;;4995777;28;20178;-52
2023/09/27 09:34:16;;;;;;;5.85;4.75;;;;;;;;;;4993638;28;20252;-52
2023/09/27 09:36:43;;;;;;;8.48;4.85;;;;;;;;;;5000582;28;20237;-52
2023/09/27 09:39:13;;;;;;;7.22;4.68;;;;;;;;;;5000912;28;20177;-52
2023/09/27 09:41:49;;;;;;;6.85;4.93;;;;;;;;;;4997571;28;20176;-52
2023/09/27 09:44:19;;;;;;;7.80;4.97;;;;;;;;;;4996349;28;20248;-52
2023/09/27 09:46:45;;;;;;;5.75;4.40;;;;;;;;;;5007731;28;20208;-52
2023/09/27 09:49:11;;;;;;;7.47;4.90;;;;;;;;;;5000399;28;20188;-52
2023/09/27 09:51:41;;;;;;;6.80;4.70;;;;;;;;;;5000004;28;20196;-52
2023/09/27 09:54:08;;;;;;;7.22;5.03;;;;;;;;;;5002995;28;20271;-52
2023/09/27 09:56:35;;;;;;;6.95;4.90;;;;;;;;;;4992845;28;20205;-52
2023/09/27 09:59:04;;;;;;;6.35;4.32;;;;;;;;;;5006765;28;20185;-52
2023/09/27 10:01:36;;;;;;;5.22;4.57;;;;;;;;;;4994454;28;20266;-52
2023/09/27 10:04:04;;;;;;;5.97;4.50;;;;;;;;;;5001059;28;20174;-52
2023/09/27 10:06:30;;;;;;;5.10;4.40;;;;;;;;;;5007840;28;20263;-52
2023/09/27 10:08:56;;;;;;;6.18;4.75;;;;;;;;;;5005644;28;20184;-52
2023/09/27 10:11:26;;;;;;;10.60;4.93;;;;;;;;;;5001239;28;20236;-52
2023/09/27 10:13:52;;;;;;;5.32;4.22;;;;;;;;;;4997345;28;20212;-52
2023/09/27 10:16:22;;;;;;;6.70;4.70;;;;;;;;;;5007302;28;20213;-52
2023/09/27 10:18:48;;;;;;;5.38;4.03;;;;;;;;;;4990835;28;20211;-52
2023/09/27 10:21:14;;;;;;;6.50;4.50;;;;;;;;;;4996797;28;20180;-52
2023/09/27 10:23:46;;;;;;;6.65;4.72;;;;;;;;;;4993521;28;20244;-52
2023/09/27 10:26:17;;;;;;;6.60;5.03;;;;;;;;;;5007869;28;20238;-52
2023/09/27 10:29:15;;;;;;;6.18;3.90;;;;;;;;;;5005424;28;20344;-52
2023/09/27 10:31:56;;;;;;;5.85;4.47;;;;;;;;;;5006814;28;20279;-52
2023/09/27 10:34:25;;;;;;;6.38;4.85;;;;;;;;;;4989381;28;20197;-52
2023/09/27 10:36:52;;;;;;;7.07;4.43;;;;;;;;;;4992295;28;20223;-52
2023/09/27 10:39:18;;;;;;;6.45;4.25;;;;;;;;;;4997144;28;20185;-52
2023/09/27 10:41:46;;;;;;;6.82;4.35;;;;;;;;;;4997673;28;20272;-52
2023/09/27 10:44:13;;;;;;;4.65;4.18;;;;;;;;;;4989989;28;20436;-52
2023/09/27 10:46:42;;;;;;;5.55;4.47;;;;;;;;;;4986803;28;20194;-52
2023/09/27 10:49:08;;;;;;;5.72;4.32;;;;;;;;;;5002889;28;20238;-52
2023/09/27 10:51:34;;;;;;;5.32;4.13;;;;;;;;;;4988389;28;20188;-52
2023/09/27 10:54:05;;;;;;;6.05;4.28;;;;;;;;;;4988587;28;20228;-52
2023/09/27 10:56:31;;;;;;;5.55;4.50;;;;;;;;;;4995829;28;20492;-52
2023/09/27 10:58:57;;;;;;;6.43;4.25;;;;;;;;;;5007955;28;20199;-52
2023/09/27 11:01:24;;;;;;;5.70;4.20;;;;;;;;;;5005145;28;20543;-52
2023/09/27 11:04:00;;;;;;;7.75;4.25;;;;;;;;;;5003942;28;20180;-52
2023/09/27 11:06:26;;;;;;;7.22;4.60;;;;;;;;;;4988077;28;20615;-52
2023/09/27 11:08:52;;;;;;;7.28;4.55;;;;;;;;;;4994359;28;20867;-52
2023/09/27 11:11:18;;;;;;;6.72;4.60;;;;;;;;;;5001798;28;20193;-52
2023/09/27 11:13:44;;;;;;;6.57;4.43;;;;;;;;;;4989446;28;20232;-52
2023/09/27 11:16:13;;;;;;;6.25;4.63;;;;;;;;;;5002890;28;20275;-52
2023/09/27 11:18:46;;;;;;;6.57;4.38;;;;;;;;;;4992383;28;20181;-52
2023/09/27 11:21:13;;;;;;;5.53;4.28;;;;;;;;;;5006337;28;20181;-52
2023/09/27 11:23:58;;;;;;;6.22;4.85;;;;;;;;;;5004153;28;20188;-52
2023/09/27 11:26:24;;;;;;;6.30;4.35;;;;;;;;;;4997443;28;20208;-52
2023/09/27 11:29:03;;;;;;;5.85;4.05;;;;;;;;;;4994492;28;20193;-52
2023/09/27 11:31:30;;;;;;;6.30;4.93;;;;;;;;;;5003686;28;20200;-52
2023/09/27 11:34:15;;;;;;;6.15;5.05;;;;;;;;;;4999083;28;20240;-52
2023/09/27 11:36:41;;;;;;;6.70;4.85;;;;;;;;;;5001096;28;20205;-52
2023/09/27 11:39:08;;;;;;;9.85;5.18;;;;;;;;;;4994204;28;20209;-52
2023/09/27 11:41:33;;;;;;;7.45;5.00;;;;;;;;;;4996439;28;20189;-52
2023/09/27 11:43:59;;;;;;;5.88;4.70;;;;;;;;;;5001653;28;20188;-52
2023/09/27 11:46:31;;;;;;;7.65;5.22;;;;;;;;;;5004689;28;20180;-52
2023/09/27 11:49:07;;;;;;;7.22;4.88;;;;;;;;;;4989528;28;20233;-52
2023/09/27 11:51:34;;;;;;;9.77;5.25;;;;;;;;;;4987613;28;20176;-52
2023/09/27 11:54:00;;;;;;;5.60;4.70;;;;;;;;;;4994187;28;20567;-52
2023/09/27 11:56:26;;;;;;;8.60;5.10;;;;;;;;;;4995999;28;20209;-52
2023/09/27 11:58:52;;;;;;;6.25;4.95;;;;;;;;;;4991658;28;20193;-52
2023/09/27 12:01:19;;;;;;;7.20;5.25;;;;;;;;;;5005317;28;20452;-52
2023/09/27 12:03:45;;;;;;;8.30;4.68;;;;;;;;;;4994446;28;20174;-52
2023/09/27 12:06:11;;;;;;;6.60;4.82;;;;;;;;;;4995083;28;20596;-52
2023/09/27 12:08:38;;;;;;;6.75;4.63;;;;;;;;;;4998814;28;20185;-52
2023/09/27 12:11:04;;;;;;;9.35;5.40;;;;;;;;;;4989421;28;20485;-52
2023/09/27 12:13:30;;;;;;;6.32;4.80;;;;;;;;;;4999280;28;20196;-52
2023/09/27 12:15:56;;;;;;;7.90;4.93;;;;;;;;;;5005334;28;20579;-52
2023/09/27 12:18:23;;;;;;;7.78;4.93;;;;;;;;;;4995402;28;20216;-52
2023/09/27 12:20:49;;;;;;;8.10;4.82;;;;;;;;;;5002912;28;20176;-52
2023/09/27 12:23:15;;;;;;;8.02;4.88;;;;;;;;;;5003000;28;20190;-52
2023/09/27 12:25:42;;;;;;;8.73;5.65;;;;;;;;;;5009415;28;20284;-52
2023/09/27 12:28:08;;;;;;;7.18;5.18;;;;;;;;;;5006830;28;20181;-52
2023/09/27 12:30:34;;;;;;;8.73;4.75;;;;;;;;;;5002872;28;20342;-52
2023/09/27 12:32:59;;;;;;;9.57;4.88;;;;;;;;;;5003163;28;20532;-52
2023/09/27 12:35:26;;;;;;;7.07;5.22;;;;;;;;;;5007988;28;20181;-52
2023/09/27 12:37:52;;;;;;;7.78;5.40;;;;;;;;;;5000346;28;20177;-52
2023/09/27 12:40:18;;;;;;;8.32;4.80;;;;;;;;;;5008378;28;20192;-52
2023/09/27 12:42:44;;;;;;;7.50;5.25;;;;;;;;;;5003445;28;20235;-52
2023/09/27 12:45:10;;;;;;;9.05;4.55;;;;;;;;;;5012233;28;20181;-52
2023/09/27 12:47:36;;;;;;;10.07;5.25;;;;;;;;;;5010025;28;20176;-52
2023/09/27 12:50:06;;;;;;;7.22;4.95;;;;;;;;;;5008756;28;20177;-52
2023/09/27 12:52:32;;;;;;;6.43;5.07;;;;;;;;;;4998723;28;20212;-52
2023/09/27 12:54:58;;;;;;;8.07;5.35;;;;;;;;;;4996072;28;20243;-52
2023/09/27 12:57:24;;;;;;;7.00;5.18;;;;;;;;;;4998671;28;20217;-52
2023/09/27 12:59:50;;;;;;;6.25;4.57;;;;;;;;;;4997397;28;20189;-52
2023/09/27 13:02:17;;;;;;;7.95;4.82;;;;;;;;;;4991244;28;20281;-52
2023/09/27 13:04:43;;;;;;;5.53;4.63;;;;;;;;;;5004795;28;20185;-52
2023/09/27 13:07:09;;;;;;;8.20;5.05;;;;;;;;;;5009425;28;20267;-52
2023/09/27 13:09:35;;;;;;;7.75;5.32;;;;;;;;;;5005761;28;20501;-52
2023/09/27 13:12:01;;;;;;;6.82;5.03;;;;;;;;;;5004781;28;20193;-52
2023/09/27 13:14:27;;;;;;;6.90;5.43;;;;;;;;;;5008553;28;20196;-52
2023/09/27 13:16:53;;;;;;;7.07;4.75;;;;;;;;;;5001400;28;20208;-51
2023/09/27 13:19:19;;;;;;;8.90;4.50;;;;;;;;;;5007128;28;20586;-51
2023/09/27 13:21:46;;;;;;;6.93;4.68;;;;;;;;;;5004774;28;20183;-51
2023/09/27 13:24:12;;;;;;;9.48;5.03;;;;;;;;;;5000810;28;20546;-51
2023/09/27 13:26:38;;;;;;;9.38;4.65;;;;;;;;;;4998401;28;20181;-51
2023/09/27 13:29:04;;;;;;;7.00;5.20;;;;;;;;;;5008175;28;20208;-51
2023/09/27 13:31:33;;;;;;;6.43;5.05;;;;;;;;;;5008751;28;20487;-51
2023/09/27 13:34:00;;;;;;;10.52;5.25;;;;;;;;;;4997978;28;20279;-51
2023/09/27 13:36:27;;;;;;;7.90;5.45;;;;;;;;;;5006341;28;20274;-51
2023/09/27 13:38:53;;;;;;;7.10;5.18;;;;;;;;;;5006412;28;20177;-51
2023/09/27 13:41:20;;;;;;;5.95;5.05;;;;;;;;;;5002517;28;20181;-51
2023/09/27 13:43:47;;;;;;;7.82;5.20;;;;;;;;;;4991687;28;20191;-51
2023/09/27 13:46:13;;;;;;;7.80;4.82;;;;;;;;;;5006092;28;20184;-51
2023/09/27 13:48:39;;;;;;;8.30;5.15;;;;;;;;;;5012822;28;20267;-51
2023/09/27 13:51:05;;;;;;;6.97;4.90;;;;;;;;;;5004081;28;20446;-51
2023/09/27 13:53:31;;;;;;;6.85;5.43;;;;;;;;;;5000894;28;20619;-51
2023/09/27 13:55:57;;;;;;;5.28;4.70;;;;;;;;;;5003628;28;20318;-51
2023/09/27 13:58:23;;;;;;;8.77;5.05;;;;;;;;;;4995250;28;20545;-51
2023/09/27 14:00:49;;;;;;;6.20;4.72;;;;;;;;;;5004846;28;20224;-52
2023/09/27 14:03:17;;;;;;;8.68;5.65;;;;;;;;;;5004131;28;20177;-52
2023/09/27 14:05:43;;;;;;;6.45;5.00;;;;;;;;;;5008953;28;20185;-51
2023/09/27 14:08:09;;;;;;;5.28;4.78;;;;;;;;;;4987717;28;20526;-51
2023/09/27 14:10:35;;;;;;;7.10;5.03;;;;;;;;;;5009206;28;20469;-51
2023/09/27 14:13:02;;;;;;;6.55;5.07;;;;;;;;;;5002081;28;20200;-51
2023/09/27 14:15:28;;;;;;;6.53;4.90;;;;;;;;;;4999076;28;20446;-51
2023/09/27 14:17:54;;;;;;;5.78;4.88;;;;;;;;;;5000231;28;20588;-51
2023/09/27 14:20:20;;;;;;;7.78;5.22;;;;;;;;;;5000042;28;20223;-51
2023/09/27 14:22:46;;;;;;;7.00;5.28;;;;;;;;;;4997842;28;20173;-51
2023/09/27 14:25:13;;;;;;;6.68;5.07;;;;;;;;;;4988357;28;20188;-51
2023/09/27 14:27:39;;;;;;;7.13;4.82;;;;;;;;;;5002953;28;20216;-51
2023/09/27 14:30:06;;;;;;;6.72;4.80;;;;;;;;;;4987260;28;20233;-51
2023/09/27 14:32:32;;;;;;;6.28;4.90;;;;;;;;;;4988870;28;20242;-51
2023/09/27 14:34:57;;;;;;;8.63;4.93;;;;;;;;;;4990097;28;20608;-51
2023/09/27 14:37:23;;;;;;;7.07;4.38;;;;;;;;;;5003591;28;20246;-51
2023/09/27 14:39:49;;;;;;;5.65;5.05;;;;;;;;;;5002872;28;20173;-51